createdAt,value
2023-10-01T00:00:44.271Z,99912.69
2023-10-01T00:03:15.863Z,99928.28
2023-10-01T00:05:44.701Z,99919.13
2023-10-01T00:08:14.771Z,99923.00
2023-10-01T00:10:45.364Z,99924.03
2023-10-01T00:13:16.201Z,99923.59
2023-10-01T00:15:45.152Z,99917.34
2023-10-01T00:18:15.575Z,99916.56
2023-10-01T00:20:44.590Z,99915.09
2023-10-01T00:23:13.879Z,99915.59
2023-10-01T00:25:44.732Z,99916.38
2023-10-01T00:28:15.626Z,99909.59
2023-10-01T00:30:47.427Z,99906.56
2023-10-01T00:33:16.986Z,99908.63
2023-10-01T00:35:45.692Z,99912.31
2023-10-01T00:38:14.813Z,99909.91
2023-10-01T00:40:45.251Z,99903.28
2023-10-01T00:43:15.606Z,99905.94
2023-10-01T00:45:46.340Z,99902.91
2023-10-01T00:48:16.696Z,99904.13
2023-10-01T00:50:46.366Z,99895.06
2023-10-01T00:53:15.209Z,99888.69
2023-10-01T00:55:44.014Z,99891.78
2023-10-01T00:58:14.227Z,99884.16
2023-10-01T01:00:43.800Z,99877.75
2023-10-01T01:03:20.852Z,99871.16
2023-10-01T01:06:06.475Z,99872.66
2023-10-01T01:08:48.531Z,99867.63
2023-10-01T01:11:17.876Z,99865.41
2023-10-01T01:13:48.434Z,99863.81
2023-10-01T01:16:20.984Z,99865.88
2023-10-01T01:18:53.207Z,99865.06
2023-10-01T01:21:22.464Z,99861.78
2023-10-01T01:23:52.628Z,99854.94
2023-10-01T01:26:23.314Z,99856.75
2023-10-01T01:28:52.297Z,99858.88
2023-10-01T01:31:28.413Z,99846.06
2023-10-01T01:33:58.060Z,99852.69
2023-10-01T01:36:31.296Z,99860.56
2023-10-01T01:39:14.369Z,99851.88
2023-10-01T01:41:44.942Z,99849.47
2023-10-01T01:44:16.375Z,99849.88
2023-10-01T01:46:50.277Z,99854.41
2023-10-01T01:49:21.063Z,99854.81
2023-10-01T01:52:01.075Z,99853.97
2023-10-01T01:54:35.935Z,99848.22
2023-10-01T01:57:10.086Z,99845.97
2023-10-01T01:59:39.392Z,99836.69
2023-10-01T02:02:10.974Z,99842.09
2023-10-01T02:05:00.527Z,99836.53
2023-10-01T02:07:35.024Z,99854.84
2023-10-01T02:10:08.258Z,99851.56
2023-10-01T02:12:38.719Z,99846.59
2023-10-01T02:15:10.138Z,99841.66
2023-10-01T02:17:40.890Z,99851.34
2023-10-01T02:20:16.630Z,99851.16
2023-10-01T02:22:45.760Z,99837.75
2023-10-01T02:25:18.219Z,99841.47
2023-10-01T02:28:07.225Z,99847.84
2023-10-01T02:30:36.050Z,99839.97
2023-10-01T02:33:21.069Z,99839.56
2023-10-01T02:35:56.423Z,99838.56
2023-10-01T02:38:44.997Z,99838.13
2023-10-01T02:41:16.363Z,99828.00
2023-10-01T02:43:46.952Z,99827.75
2023-10-01T02:46:17.432Z,99831.31
2023-10-01T02:48:46.481Z,99829.84
2023-10-01T02:51:18.290Z,99822.44
2023-10-01T02:54:04.628Z,99825.72
2023-10-01T02:56:38.811Z,99822.81
2023-10-01T02:59:11.165Z,99816.00
2023-10-01T03:01:44.061Z,99830.00
2023-10-01T03:04:16.665Z,99839.06
2023-10-01T03:06:54.375Z,99844.84
2023-10-01T03:09:31.010Z,99840.84
2023-10-01T03:12:15.874Z,99826.16
2023-10-01T03:15:01.164Z,99828.81
2023-10-01T03:20:16.882Z,99817.50
2023-10-01T03:22:52.839Z,99821.56
2023-10-01T03:25:30.140Z,99825.94
2023-10-01T03:28:01.126Z,99829.22
2023-10-01T03:30:33.540Z,99841.81
2023-10-01T03:33:09.218Z,99828.97
2023-10-01T03:35:38.391Z,99813.66
2023-10-01T03:38:15.618Z,99805.38
2023-10-01T03:40:58.648Z,99809.50
2023-10-01T03:43:36.453Z,99798.72
2023-10-01T03:49:02.528Z,99804.16
2023-10-01T03:51:50.928Z,99804.16
2023-10-01T03:54:21.206Z,99809.06
2023-10-01T03:56:58.328Z,99803.41
2023-10-01T03:59:34.175Z,99820.94
2023-10-01T04:02:04.156Z,99824.28
2023-10-01T04:04:54.793Z,99832.91
2023-10-01T04:07:27.548Z,99834.78
2023-10-01T04:09:56.482Z,99832.31
2023-10-01T04:12:34.077Z,99828.00
2023-10-01T04:15:05.973Z,99833.09
2023-10-01T04:17:37.521Z,99840.25
2023-10-01T04:20:20.923Z,99848.31
2023-10-01T04:22:49.857Z,99855.31
2023-10-01T04:25:19.877Z,99866.44
2023-10-01T04:27:49.159Z,99849.69
2023-10-01T04:30:22.867Z,99847.16
2023-10-01T04:32:51.707Z,99842.97
2023-10-01T04:35:22.312Z,99830.59
2023-10-01T04:37:52.734Z,99823.59
2023-10-01T04:40:41.479Z,99820.03
2023-10-01T04:43:12.705Z,99818.81
2023-10-01T04:45:45.282Z,99813.63
2023-10-01T04:48:23.456Z,99807.44
2023-10-01T04:50:55.577Z,99810.13
2023-10-01T04:53:26.477Z,99796.63
2023-10-01T04:56:02.137Z,99796.28
2023-10-01T04:58:33.720Z,99793.38
2023-10-01T05:01:06.985Z,99788.81
2023-10-01T05:03:41.585Z,99785.31
2023-10-01T05:06:14.165Z,99790.44
2023-10-01T05:08:45.068Z,99793.38
2023-10-01T05:11:18.384Z,99783.59
2023-10-01T05:13:48.995Z,99805.31
2023-10-01T05:16:21.478Z,99806.94
2023-10-01T05:18:50.533Z,99819.69
2023-10-01T05:21:19.900Z,99828.72
2023-10-01T05:23:52.159Z,99830.00
2023-10-01T05:26:22.641Z,99834.09
2023-10-01T05:28:55.871Z,99830.75
2023-10-01T05:31:26.969Z,99823.69
2023-10-01T05:33:59.975Z,99836.50
2023-10-01T05:36:30.956Z,99839.63
2023-10-01T05:39:01.648Z,99830.69
2023-10-01T05:41:35.585Z,99830.84
2023-10-01T05:44:05.641Z,99826.69
2023-10-01T05:46:37.899Z,99822.94
2023-10-01T05:49:09.965Z,99835.31
2023-10-01T05:51:46.347Z,99829.28
2023-10-01T05:54:19.858Z,99828.00
2023-10-01T05:56:50.548Z,99835.25
2023-10-01T05:59:23.515Z,99834.56
2023-10-01T06:01:54.052Z,99844.41
2023-10-01T06:04:22.976Z,99840.03
2023-10-01T06:06:51.963Z,99847.41
2023-10-01T06:09:24.654Z,99841.00
2023-10-01T06:12:04.826Z,99843.81
2023-10-01T06:14:40.744Z,99850.38
2023-10-01T06:17:12.523Z,99839.63
2023-10-01T06:19:42.768Z,99837.66
2023-10-01T06:22:15.077Z,99850.19
2023-10-01T06:24:45.313Z,99843.91
2023-10-01T06:27:19.317Z,99846.75
2023-10-01T06:29:57.926Z,99836.38
2023-10-01T06:32:29.168Z,99843.28
2023-10-01T06:34:59.217Z,99848.31
2023-10-01T06:37:46.781Z,99843.09
2023-10-01T06:40:29.876Z,99841.72
2023-10-01T06:42:59.805Z,99834.94
2023-10-01T06:45:41.265Z,99841.09
2023-10-01T06:48:15.642Z,99842.63
2023-10-01T06:50:47.818Z,99836.56
2023-10-01T06:53:16.691Z,99847.66
2023-10-01T06:55:48.448Z,99841.59
2023-10-01T06:58:18.079Z,99841.72
2023-10-01T07:00:47.086Z,99833.97
2023-10-01T07:03:23.275Z,99832.25
2023-10-01T07:05:57.339Z,99835.63
2023-10-01T07:08:38.836Z,99831.19
2023-10-01T07:11:19.451Z,99835.06
2023-10-01T07:13:49.572Z,99848.41
2023-10-01T07:16:20.355Z,99842.78
2023-10-01T07:18:50.961Z,99844.19
2023-10-01T07:21:20.875Z,99843.72
2023-10-01T07:23:50.681Z,99839.50
2023-10-01T07:26:20.429Z,99845.00
2023-10-01T07:28:59.708Z,99839.94
2023-10-01T07:31:35.276Z,99838.44
2023-10-01T07:34:14.834Z,99835.28
2023-10-01T07:36:45.227Z,99828.69
2023-10-01T07:39:14.656Z,99827.75
2023-10-01T07:41:45.672Z,99822.53
2023-10-01T07:44:16.225Z,99827.09
2023-10-01T07:46:45.111Z,99824.28
2023-10-01T07:49:20.273Z,99830.13
2023-10-01T07:51:50.371Z,99836.53
2023-10-01T07:54:23.783Z,99841.53
2023-10-01T07:56:57.578Z,99837.16
2023-10-01T07:59:35.202Z,99837.84
2023-10-01T08:02:15.247Z,99838.03
2023-10-01T08:05:00.583Z,99833.59
2023-10-01T08:07:41.440Z,99832.97
2023-10-01T08:10:20.415Z,99826.59
2023-10-01T08:13:07.661Z,99832.81
2023-10-01T08:15:59.108Z,99837.91
2023-10-01T08:18:37.123Z,99833.56
2023-10-01T08:21:17.048Z,99834.56
2023-10-01T08:23:50.099Z,99834.22
2023-10-01T08:26:39.205Z,99834.63
2023-10-01T08:29:12.616Z,99824.69
2023-10-01T08:32:00.437Z,99831.88
2023-10-01T08:34:30.012Z,99843.09
2023-10-01T08:37:08.294Z,99839.75
2023-10-01T08:39:49.108Z,99834.03
2023-10-01T08:42:18.769Z,99830.41
2023-10-01T08:44:52.455Z,99833.41
2023-10-01T08:47:43.312Z,99833.94
2023-10-01T08:50:28.704Z,99824.13
2023-10-01T08:53:02.720Z,99824.97
2023-10-01T08:55:41.220Z,99830.81
2023-10-01T08:58:26.874Z,99819.56
2023-10-01T09:01:11.720Z,99820.47
2023-10-01T09:03:49.383Z,99814.22
2023-10-01T09:06:34.069Z,99811.00
2023-10-01T09:09:22.887Z,99810.97
2023-10-01T09:11:59.902Z,99808.81
2023-10-01T09:14:40.477Z,99814.53
2023-10-01T09:17:28.445Z,99802.31
2023-10-01T09:20:07.400Z,99793.88
2023-10-01T09:22:44.439Z,99798.97
2023-10-01T09:25:26.968Z,99810.13
2023-10-01T09:28:05.500Z,99803.53
2023-10-01T09:30:36.958Z,99804.06
2023-10-01T09:33:16.280Z,99799.16
2023-10-01T09:35:57.589Z,99800.44
2023-10-01T09:38:29.298Z,99795.00
2023-10-01T09:41:01.737Z,99790.34
2023-10-01T09:43:35.776Z,99793.34
2023-10-01T09:46:07.452Z,99785.31
2023-10-01T09:48:38.429Z,99786.75
2023-10-01T09:51:15.234Z,99788.13
2023-10-01T09:53:52.040Z,99787.84
2023-10-01T09:56:32.219Z,99781.78
2023-10-01T09:59:05.028Z,99784.69
2023-10-01T10:01:35.948Z,99784.81
2023-10-01T10:04:08.044Z,99776.50
2023-10-01T10:06:40.810Z,99778.28
2023-10-01T10:09:27.097Z,99783.81
2023-10-01T10:12:03.248Z,99780.81
2023-10-01T10:14:57.630Z,99790.56
2023-10-01T10:17:29.344Z,99791.19
2023-10-01T10:20:41.451Z,99795.44
2023-10-01T10:23:17.458Z,99796.63
2023-10-01T10:25:47.975Z,99792.59
2023-10-01T10:28:29.740Z,99797.28
2023-10-01T10:31:33.998Z,99797.81
2023-10-01T10:34:28.676Z,99798.94
2023-10-01T10:36:59.524Z,99786.97
2023-10-01T10:40:23.625Z,99782.31
2023-10-01T10:43:24.881Z,99785.84
2023-10-01T10:46:05.199Z,99791.75
2023-10-01T10:49:04.160Z,99798.81
2023-10-01T10:51:49.235Z,99798.63
2023-10-01T10:54:34.439Z,99790.94
2023-10-01T10:57:07.112Z,99780.66
2023-10-01T10:59:36.703Z,99783.38
2023-10-01T11:02:07.258Z,99787.78
2023-10-01T11:04:43.613Z,99788.06
2023-10-01T11:07:14.442Z,99781.84
2023-10-01T11:09:43.235Z,99774.44
2023-10-01T11:12:22.904Z,99777.63
2023-10-01T11:15:19.290Z,99777.59
2023-10-01T11:17:49.666Z,99780.03
2023-10-01T11:20:25.194Z,99778.47
2023-10-01T11:22:56.523Z,99774.16
2023-10-01T11:25:27.374Z,99781.53
2023-10-01T11:28:06.751Z,99769.78
2023-10-01T11:30:44.057Z,99771.72
2023-10-01T11:33:16.389Z,99771.41
2023-10-01T11:36:10.068Z,99773.16
2023-10-01T11:38:46.817Z,99760.69
2023-10-01T11:41:15.578Z,99762.31
2023-10-01T11:44:00.246Z,99756.25
2023-10-01T11:46:34.712Z,99758.78
2023-10-01T11:49:17.858Z,99748.41
2023-10-01T11:51:52.218Z,99734.09
2023-10-01T11:54:22.909Z,99741.72
2023-10-01T11:57:05.637Z,99745.56
2023-10-01T11:59:37.622Z,99739.13
2023-10-01T12:02:21.851Z,99736.44
2023-10-01T12:04:58.766Z,99731.50
2023-10-01T12:07:33.852Z,99722.16
2023-10-01T12:10:06.327Z,99711.22
2023-10-01T12:12:39.523Z,99716.00
2023-10-01T12:15:27.721Z,99714.78
2023-10-01T12:18:15.426Z,99723.91
2023-10-01T12:20:51.798Z,99731.53
2023-10-01T12:23:24.327Z,99725.28
2023-10-01T12:25:59.401Z,99724.72
2023-10-01T12:28:29.710Z,99722.56
2023-10-01T12:31:03.747Z,99726.88
2023-10-01T12:33:41.870Z,99721.41
2023-10-01T12:36:28.855Z,99718.31
2023-10-01T12:39:18.102Z,99699.47
2023-10-01T12:41:58.332Z,99702.69
2023-10-01T12:44:29.933Z,99709.28
2023-10-01T12:47:02.430Z,99708.13
2023-10-01T12:49:34.378Z,99700.16
2023-10-01T12:52:10.234Z,99691.63
2023-10-01T12:54:39.728Z,99689.84
2023-10-01T12:57:11.275Z,99690.59
2023-10-01T12:59:43.277Z,99686.53
2023-10-01T13:02:24.789Z,99695.81
2023-10-01T13:05:13.009Z,99683.75
2023-10-01T13:07:47.652Z,99695.75
2023-10-01T13:10:18.560Z,99684.41
2023-10-01T13:12:57.460Z,99688.06
2023-10-01T13:15:32.576Z,99682.09
2023-10-01T13:18:04.531Z,99677.19
2023-10-01T13:20:49.651Z,99684.41
2023-10-01T13:23:25.464Z,99684.72
2023-10-01T13:26:07.610Z,99677.94
2023-10-01T13:28:59.590Z,99672.50
2023-10-01T13:31:44.602Z,99677.38
2023-10-01T13:34:22.627Z,99674.72
2023-10-01T13:37:05.963Z,99672.50
2023-10-01T13:39:53.470Z,99671.00
2023-10-01T13:42:39.854Z,99677.69
2023-10-01T13:45:27.046Z,99677.69
2023-10-01T13:48:13.804Z,99665.72
2023-10-01T13:51:01.124Z,99667.94
2023-10-01T13:53:48.473Z,99667.94
2023-10-01T13:56:42.079Z,99668.25
2023-10-01T13:59:28.668Z,99668.53
2023-10-01T14:02:15.328Z,99677.53
2023-10-01T14:05:01.828Z,99669.66
2023-10-01T14:07:49.699Z,99665.91
2023-10-01T14:10:20.190Z,99673.47
2023-10-01T14:13:01.675Z,99669.72
2023-10-01T14:15:31.564Z,99662.59
2023-10-01T14:18:02.338Z,99653.91
2023-10-01T14:20:49.979Z,99647.63
2023-10-01T14:23:41.697Z,99650.38
2023-10-01T14:26:15.056Z,99640.31
2023-10-01T14:28:47.021Z,99633.75
2023-10-01T14:31:37.171Z,99633.78
2023-10-01T14:34:07.043Z,99635.16
2023-10-01T14:36:40.945Z,99638.44
2023-10-01T14:39:10.657Z,99643.56
2023-10-01T14:41:43.347Z,99640.97
2023-10-01T14:44:16.365Z,99645.31
2023-10-01T14:46:51.049Z,99643.72
2023-10-01T14:49:20.716Z,99643.50
2023-10-01T14:51:54.510Z,99649.19
2023-10-01T14:54:25.243Z,99646.88
2023-10-01T14:56:57.624Z,99643.06
2023-10-01T14:59:33.393Z,99635.97
2023-10-01T15:02:06.589Z,99636.03
2023-10-01T15:04:37.673Z,99640.97
2023-10-01T15:07:08.580Z,99640.16
2023-10-01T15:09:39.966Z,99638.25
2023-10-01T15:12:40.852Z,99644.78
2023-10-01T15:15:33.223Z,99626.81
2023-10-01T15:18:18.661Z,99632.25
2023-10-01T15:20:52.230Z,99636.88
2023-10-01T15:23:21.912Z,99627.09
2023-10-01T15:25:53.814Z,99636.66
2023-10-01T15:28:23.864Z,99634.44
2023-10-01T15:30:55.741Z,99628.81
2023-10-01T15:33:26.938Z,99635.06
2023-10-01T15:36:06.506Z,99637.28
2023-10-01T15:38:36.814Z,99641.38
2023-10-01T15:41:11.145Z,99634.09
2023-10-01T15:43:51.988Z,99638.97
2023-10-01T15:46:26.543Z,99633.00
2023-10-01T15:48:55.707Z,99633.56
2023-10-01T15:51:28.155Z,99628.13
2023-10-01T15:53:57.270Z,99628.69
2023-10-01T15:56:36.119Z,99634.69
2023-10-01T15:59:12.047Z,99632.03
2023-10-01T16:01:52.165Z,99626.03
2023-10-01T16:04:25.138Z,99629.84
2023-10-01T16:07:03.318Z,99628.25
2023-10-01T16:09:41.020Z,99630.44
2023-10-01T16:12:15.873Z,99630.19
2023-10-01T16:14:59.021Z,99632.66
2023-10-01T16:17:33.897Z,99621.25
2023-10-01T16:20:20.038Z,99634.31
2023-10-01T16:22:59.423Z,99637.56
2023-10-01T16:25:28.764Z,99636.53
2023-10-01T16:27:59.869Z,99636.03
2023-10-01T16:30:31.129Z,99643.09
2023-10-01T16:33:05.709Z,99649.63
2023-10-01T16:35:37.802Z,99645.78
2023-10-01T16:38:08.116Z,99646.06
2023-10-01T16:40:37.763Z,99654.53
2023-10-01T16:43:16.239Z,99651.00
2023-10-01T16:45:46.570Z,99656.16
2023-10-01T16:48:26.082Z,99659.16
2023-10-01T16:51:19.274Z,99659.47
2023-10-01T16:53:53.226Z,99656.25
2023-10-01T16:56:25.382Z,99653.00
2023-10-01T16:58:58.834Z,99661.69
2023-10-01T17:01:33.381Z,99669.28
2023-10-01T17:04:28.017Z,99674.19
2023-10-01T17:07:00.221Z,99669.84
2023-10-01T17:09:35.647Z,99672.03
2023-10-01T17:12:21.160Z,99675.81
2023-10-01T17:14:54.232Z,99676.88
2023-10-01T17:17:28.657Z,99677.97
2023-10-01T17:20:15.404Z,99689.91
2023-10-01T17:22:46.613Z,99686.66
2023-10-01T17:25:19.849Z,99686.66
2023-10-01T17:27:48.840Z,99689.38
2023-10-01T17:30:21.940Z,99694.00
2023-10-01T17:33:02.326Z,99688.81
2023-10-01T17:35:36.226Z,99689.66
2023-10-01T17:38:11.148Z,99685.56
2023-10-01T17:41:03.878Z,99691.28
2023-10-01T17:43:33.040Z,99682.59
2023-10-01T17:46:06.228Z,99683.66
2023-10-01T17:48:37.147Z,99686.66
2023-10-01T17:51:07.639Z,99684.22
2023-10-01T17:53:36.960Z,99689.13
2023-10-01T17:56:21.673Z,99688.84
2023-10-01T17:58:55.895Z,99691.53
2023-10-01T18:01:27.173Z,99695.91
2023-10-01T18:04:00.945Z,99690.97
2023-10-01T18:06:43.453Z,99695.59
2023-10-01T18:09:22.077Z,99692.59
2023-10-01T18:11:56.641Z,99693.69
2023-10-01T18:14:28.584Z,99698.84
2023-10-01T18:16:57.793Z,99707.78
2023-10-01T18:19:26.944Z,99706.69
2023-10-01T18:21:58.092Z,99699.63
2023-10-01T18:24:45.596Z,99700.19
2023-10-01T18:27:25.907Z,99701.81
2023-10-01T18:29:58.592Z,99701.00
2023-10-01T18:32:27.696Z,99696.38
2023-10-01T18:35:13.931Z,99695.25
2023-10-01T18:37:47.684Z,99693.03
2023-10-01T18:40:18.195Z,99695.16
2023-10-01T18:42:47.218Z,99702.19
2023-10-01T18:45:16.943Z,99707.06
2023-10-01T18:47:49.386Z,99701.31
2023-10-01T18:50:44.259Z,99706.41
2023-10-01T18:53:14.667Z,99702.31
2023-10-01T18:55:43.798Z,99695.81
2023-10-01T18:58:19.164Z,99703.56
2023-10-01T19:00:48.579Z,99711.38
2023-10-01T19:03:30.516Z,99702.44
2023-10-01T19:06:10.580Z,99706.22
2023-10-01T19:08:45.259Z,99708.38
2023-10-01T19:11:31.080Z,99704.84
2023-10-01T19:14:50.415Z,99709.06
2023-10-01T19:17:23.095Z,99705.97
2023-10-01T19:20:17.180Z,99703.78
2023-10-01T19:22:52.405Z,99710.22
2023-10-01T19:25:23.938Z,99716.38
2023-10-01T19:27:55.611Z,99718.50
2023-10-01T19:30:25.820Z,99721.69
2023-10-01T19:32:56.943Z,99724.25
2023-10-01T19:35:25.858Z,99725.06
2023-10-01T19:37:59.653Z,99730.16
2023-10-01T19:40:35.103Z,99736.31
2023-10-01T19:43:05.121Z,99733.81
2023-10-01T19:45:37.518Z,99727.59
2023-10-01T19:48:08.365Z,99728.94
2023-10-01T19:50:42.017Z,99724.75
2023-10-01T19:53:19.067Z,99731.41
2023-10-01T19:55:56.788Z,99732.22
2023-10-01T19:58:32.387Z,99735.97
2023-10-01T20:01:06.786Z,99746.19
2023-10-01T20:03:36.192Z,99740.41
2023-10-01T20:06:08.146Z,99738.47
2023-10-01T20:08:39.845Z,99739.19
2023-10-01T20:11:14.876Z,99732.09
2023-10-01T20:13:44.306Z,99730.66
2023-10-01T20:16:14.734Z,99723.63
2023-10-01T20:18:44.956Z,99730.59
2023-10-01T20:21:23.910Z,99726.44
2023-10-01T20:23:53.976Z,99727.75
2023-10-01T20:26:25.183Z,99728.47
2023-10-01T20:28:57.982Z,99726.53
2023-10-01T20:31:28.914Z,99724.31
2023-10-01T20:34:02.141Z,99724.81
2023-10-01T20:36:31.498Z,99722.38
2023-10-01T20:39:04.679Z,99730.13
2023-10-01T20:41:48.050Z,99732.84
2023-10-01T20:44:19.623Z,99730.84
2023-10-01T20:46:51.205Z,99723.50
2023-10-01T20:49:26.666Z,99729.88
2023-10-01T20:52:03.375Z,99713.69
2023-10-01T20:54:34.106Z,99723.38
2023-10-01T20:57:05.685Z,99716.47
2023-10-01T20:59:36.072Z,99713.22
2023-10-01T21:02:11.177Z,99713.72
2023-10-01T21:04:52.820Z,99716.03
2023-10-01T21:07:33.246Z,99710.88
2023-10-01T21:10:19.186Z,99713.41
2023-10-01T21:12:51.759Z,99707.38
2023-10-01T21:15:54.838Z,99694.53
2023-10-01T21:18:42.276Z,99695.09
2023-10-01T21:21:16.014Z,99694.94
2023-10-01T21:23:48.023Z,99696.41
2023-10-01T21:26:25.543Z,99697.22
2023-10-01T21:29:05.347Z,99692.38
2023-10-01T21:31:41.982Z,99690.19
2023-10-01T21:34:17.341Z,99685.94
2023-10-01T21:36:49.185Z,99690.75
2023-10-01T21:39:24.577Z,99690.38
2023-10-01T21:41:53.559Z,99688.22
2023-10-01T21:44:27.862Z,99686.25
2023-10-01T21:47:00.933Z,99682.44
2023-10-01T21:49:31.647Z,99682.75
2023-10-01T21:52:11.226Z,99688.41
2023-10-01T21:54:41.415Z,99694.31
2023-10-01T21:57:11.010Z,99687.25
2023-10-01T21:59:44.483Z,99681.84
2023-10-01T22:02:20.290Z,99685.63
2023-10-01T22:04:58.175Z,99691.53
2023-10-01T22:07:27.635Z,99681.22
2023-10-01T22:10:06.400Z,99685.94
2023-10-01T22:12:49.096Z,99687.84
2023-10-01T22:15:29.193Z,99683.66
2023-10-01T22:17:58.451Z,99690.13
2023-10-01T22:20:32.708Z,99682.34
2023-10-01T22:23:06.271Z,99697.56
2023-10-01T22:25:35.366Z,99685.13
2023-10-01T22:28:07.216Z,99694.47
2023-10-01T22:30:38.110Z,99685.63
2023-10-01T22:33:17.139Z,99684.00
2023-10-01T22:35:49.261Z,99680.78
2023-10-01T22:38:18.180Z,99678.75
2023-10-01T22:40:51.632Z,99682.16
2023-10-01T22:43:22.812Z,99681.84
2023-10-01T22:45:55.882Z,99682.09
2023-10-01T22:48:30.023Z,99676.88
2023-10-01T22:51:01.810Z,99674.88
2023-10-01T22:53:33.396Z,99679.34
2023-10-01T22:56:06.384Z,99675.94
2023-10-01T22:58:37.463Z,99675.13
2023-10-01T23:01:08.731Z,99682.28
2023-10-01T23:03:38.173Z,99682.97
2023-10-01T23:06:07.913Z,99679.81
2023-10-01T23:08:37.568Z,99685.22
2023-10-01T23:11:06.266Z,99687.34
2023-10-01T23:13:38.894Z,99681.28
2023-10-01T23:16:19.396Z,99678.84
2023-10-01T23:18:50.713Z,99691.16
2023-10-01T23:21:23.783Z,99692.53
2023-10-01T23:23:56.346Z,99697.25
2023-10-01T23:26:30.761Z,99700.53
2023-10-01T23:29:20.824Z,99697.75
2023-10-01T23:32:10.926Z,99696.19
2023-10-01T23:34:45.270Z,99693.91
2023-10-01T23:37:15.141Z,99691.34
2023-10-01T23:39:47.218Z,99694.28
2023-10-01T23:42:20.647Z,99696.38
2023-10-01T23:44:58.773Z,99703.41
2023-10-01T23:47:30.978Z,99691.50
2023-10-01T23:50:21.857Z,99698.66
2023-10-01T23:52:50.786Z,99696.28
2023-10-01T23:55:34.131Z,99693.59
2023-10-01T23:58:22.268Z,99685.44
